createdAt,value
2023-05-09T00:00:29.010Z,5.03
2023-05-09T00:02:55.377Z,5.20
2023-05-09T00:05:21.770Z,5.72
2023-05-09T00:07:48.717Z,5.40
2023-05-09T00:10:15.149Z,5.10
2023-05-09T00:12:41.795Z,5.15
2023-05-09T00:15:08.459Z,5.30
2023-05-09T00:17:35.532Z,5.43
2023-05-09T00:20:02.648Z,4.85
2023-05-09T00:22:28.920Z,5.05
2023-05-09T00:24:55.190Z,5.20
2023-05-09T00:27:21.581Z,4.97
2023-05-09T00:29:47.854Z,5.18
2023-05-09T00:32:14.167Z,5.30
2023-05-09T00:34:40.517Z,4.80
2023-05-09T00:37:06.791Z,5.53
2023-05-09T00:39:33.076Z,5.05
2023-05-09T00:41:59.458Z,5.40
2023-05-09T00:44:25.747Z,5.60
2023-05-09T00:46:52.132Z,5.03
2023-05-09T00:49:18.523Z,5.38
2023-05-09T00:51:44.824Z,5.22
2023-05-09T00:54:11.284Z,5.38
2023-05-09T00:56:37.730Z,4.75
2023-05-09T00:59:04.030Z,4.93
2023-05-09T01:01:30.332Z,5.25
2023-05-09T01:03:56.749Z,5.35
2023-05-09T01:06:36.602Z,4.60
2023-05-09T01:09:23.672Z,5.35
2023-05-09T01:12:04.088Z,4.90
2023-05-09T01:14:48.893Z,5.40
2023-05-09T01:17:40.289Z,4.75
2023-05-09T01:20:18.950Z,4.50
2023-05-09T01:22:52.483Z,4.80
2023-05-09T01:25:41.615Z,5.07
2023-05-09T01:28:14.321Z,5.05
2023-05-09T01:30:45.340Z,4.75
2023-05-09T01:33:16.279Z,4.75
2023-05-09T01:35:44.864Z,5.20
2023-05-09T01:38:17.414Z,4.85
2023-05-09T01:40:47.331Z,4.38
2023-05-09T01:43:16.494Z,5.10
2023-05-09T01:45:43.318Z,4.70
2023-05-09T01:48:10.882Z,4.70
2023-05-09T01:50:39.438Z,4.65
2023-05-09T01:53:06.604Z,5.03
2023-05-09T01:55:35.156Z,4.88
2023-05-09T01:58:04.275Z,5.00
2023-05-09T02:00:32.984Z,5.43
2023-05-09T02:02:59.731Z,4.82
2023-05-09T02:05:28.457Z,5.25
2023-05-09T02:07:56.384Z,5.25
2023-05-09T02:10:23.241Z,4.80
2023-05-09T02:12:49.625Z,5.13
2023-05-09T02:15:16.260Z,4.72
2023-05-09T02:17:42.812Z,5.15
2023-05-09T02:20:09.651Z,4.82
2023-05-09T02:22:36.432Z,5.15
2023-05-09T02:25:05.144Z,4.63
2023-05-09T02:27:34.028Z,4.82
2023-05-09T02:30:03.911Z,4.53
2023-05-09T02:32:33.809Z,5.10
2023-05-09T02:35:01.967Z,5.13
2023-05-09T02:37:29.087Z,4.88
2023-05-09T02:39:55.903Z,5.00
2023-05-09T02:42:23.624Z,5.60
2023-05-09T02:44:49.893Z,5.53
2023-05-09T02:47:16.251Z,5.50
2023-05-09T02:49:42.677Z,5.53
2023-05-09T02:52:09.058Z,5.95
2023-05-09T02:54:35.360Z,5.78
2023-05-09T02:57:01.757Z,6.38
2023-05-09T02:59:28.093Z,5.88
2023-05-09T03:01:54.588Z,5.38
2023-05-09T03:04:21.023Z,5.25
2023-05-09T03:06:47.315Z,5.78
2023-05-09T03:09:13.612Z,5.85
2023-05-09T03:11:39.992Z,5.80
2023-05-09T03:14:06.292Z,5.90
2023-05-09T03:16:32.557Z,6.05
2023-05-09T03:18:58.901Z,6.15
2023-05-09T03:21:25.211Z,5.75
2023-05-09T03:23:51.689Z,5.85
2023-05-09T03:26:18.086Z,5.97
2023-05-09T03:28:44.366Z,6.07
2023-05-09T03:31:10.694Z,5.80
2023-05-09T03:33:37.040Z,5.78
2023-05-09T03:36:03.501Z,5.68
2023-05-09T03:38:29.849Z,5.60
2023-05-09T03:40:56.157Z,5.38
2023-05-09T03:43:22.438Z,6.10
2023-05-09T03:45:48.750Z,6.30
2023-05-09T03:48:15.131Z,5.82
2023-05-09T03:50:41.778Z,6.53
2023-05-09T03:53:08.088Z,5.93
2023-05-09T03:55:34.402Z,6.25
2023-05-09T03:58:00.675Z,6.30
2023-05-09T04:00:27.012Z,6.22
2023-05-09T04:02:53.674Z,6.20
2023-05-09T04:05:20.280Z,6.32
2023-05-09T04:07:46.623Z,7.38
2023-05-09T04:10:12.880Z,6.63
2023-05-09T04:12:39.309Z,6.10
2023-05-09T04:15:06.615Z,6.75
2023-05-09T04:17:32.944Z,6.00
2023-05-09T04:19:59.356Z,6.20
2023-05-09T04:22:25.670Z,6.22
2023-05-09T04:24:51.981Z,6.18
2023-05-09T04:27:18.282Z,5.88
2023-05-09T04:29:44.677Z,5.78
2023-05-09T04:32:11.101Z,5.70
2023-05-09T04:34:37.440Z,5.43
2023-05-09T04:37:03.744Z,5.97
2023-05-09T04:39:30.048Z,5.90
2023-05-09T04:41:56.306Z,6.18
2023-05-09T04:44:22.680Z,5.65
2023-05-09T04:46:48.960Z,5.55
2023-05-09T04:49:15.239Z,5.50
2023-05-09T04:51:41.558Z,5.78
2023-05-09T04:54:07.866Z,6.22
2023-05-09T04:56:34.147Z,5.72
2023-05-09T04:59:00.451Z,5.88
2023-05-09T05:01:26.823Z,6.32
2023-05-09T05:03:53.217Z,5.60
2023-05-09T05:06:19.531Z,5.65
2023-05-09T05:08:45.827Z,5.75
2023-05-09T05:11:12.110Z,5.45
2023-05-09T05:13:38.406Z,6.03
2023-05-09T05:16:05.011Z,5.97
2023-05-09T05:18:31.411Z,5.75
2023-05-09T05:20:57.697Z,6.07
2023-05-09T05:23:23.991Z,5.82
2023-05-09T05:25:50.367Z,5.90
2023-05-09T05:28:16.857Z,5.75
2023-05-09T05:30:43.178Z,6.03
2023-05-09T05:33:09.498Z,5.88
2023-05-09T05:35:36.001Z,6.10
2023-05-09T05:38:02.402Z,5.63
2023-05-09T05:40:28.696Z,5.50
2023-05-09T05:42:54.994Z,5.97
2023-05-09T05:45:21.377Z,5.80
2023-05-09T05:47:48.468Z,6.80
2023-05-09T05:50:15.374Z,5.53
2023-05-09T05:52:41.783Z,5.07
2023-05-09T05:55:08.579Z,4.97
2023-05-09T05:57:34.912Z,5.50
2023-05-09T06:00:01.460Z,4.80
2023-05-09T06:02:27.866Z,5.25
2023-05-09T06:04:55.916Z,4.97
2023-05-09T06:07:22.527Z,4.70
2023-05-09T06:09:48.820Z,4.93
2023-05-09T06:12:15.105Z,4.85
2023-05-09T06:14:41.455Z,4.80
2023-05-09T06:17:08.381Z,5.05
2023-05-09T06:19:34.721Z,4.40
2023-05-09T06:22:01.023Z,4.82
2023-05-09T06:24:35.556Z,4.60
2023-05-09T06:27:03.343Z,4.60
2023-05-09T06:29:29.727Z,5.20
2023-05-09T06:31:56.075Z,4.65
2023-05-09T06:34:22.442Z,4.95
2023-05-09T06:36:48.737Z,4.97
2023-05-09T06:39:15.069Z,4.82
2023-05-09T06:41:41.364Z,4.53
2023-05-09T06:44:07.695Z,4.63
2023-05-09T06:46:34.056Z,4.60
2023-05-09T06:49:00.437Z,4.97
2023-05-09T06:51:26.881Z,4.32
2023-05-09T06:53:53.235Z,4.53
2023-05-09T06:56:20.132Z,4.40
2023-05-09T06:58:46.913Z,4.72
2023-05-09T07:01:13.273Z,4.70
2023-05-09T07:03:39.601Z,4.28
2023-05-09T07:06:06.141Z,4.55
2023-05-09T07:08:32.529Z,4.82
2023-05-09T07:10:58.857Z,4.43
2023-05-09T07:13:25.379Z,4.43
2023-05-09T07:15:51.817Z,4.18
2023-05-09T07:18:18.184Z,4.22
2023-05-09T07:20:44.496Z,4.90
2023-05-09T07:23:10.784Z,4.10
2023-05-09T07:25:37.107Z,3.88
2023-05-09T07:28:03.701Z,4.18
2023-05-09T07:30:30.038Z,4.60
2023-05-09T07:32:56.367Z,3.70
2023-05-09T07:35:22.822Z,4.20
2023-05-09T07:37:49.123Z,3.72
2023-05-09T07:40:15.960Z,3.72
2023-05-09T07:42:42.494Z,4.15
2023-05-09T07:45:09.217Z,4.93
2023-05-09T07:47:35.592Z,4.10
2023-05-09T07:50:01.968Z,4.05
2023-05-09T07:52:28.310Z,3.90
2023-05-09T07:54:54.724Z,4.25
2023-05-09T07:57:21.143Z,3.90
2023-05-09T07:59:47.454Z,4.00
2023-05-09T08:02:13.846Z,4.10
2023-05-09T08:04:40.225Z,4.60
2023-05-09T08:07:06.826Z,4.15
2023-05-09T08:09:33.110Z,3.70
2023-05-09T08:11:59.554Z,4.13
2023-05-09T08:14:25.906Z,3.88
2023-05-09T08:16:52.210Z,3.75
2023-05-09T08:19:18.535Z,3.88
2023-05-09T08:21:44.861Z,3.58
2023-05-09T08:24:11.239Z,3.58
2023-05-09T08:26:37.548Z,3.80
2023-05-09T08:29:03.899Z,3.47
2023-05-09T08:31:30.229Z,3.28
2023-05-09T08:33:56.568Z,3.28
2023-05-09T08:36:22.840Z,3.70
2023-05-09T08:38:49.151Z,3.30
2023-05-09T08:41:16.045Z,3.25
2023-05-09T08:43:43.045Z,3.55
2023-05-09T08:46:10.662Z,3.33
2023-05-09T08:48:37.118Z,3.53
2023-05-09T08:51:04.573Z,3.40
2023-05-09T08:53:31.498Z,3.40
2023-05-09T08:55:59.566Z,3.35
2023-05-09T08:58:26.101Z,3.70
2023-05-09T09:00:53.363Z,3.42
2023-05-09T09:03:20.009Z,3.78
2023-05-09T09:05:47.183Z,3.60
2023-05-09T09:10:41.873Z,3.42
2023-05-09T09:13:09.938Z,3.60
2023-05-09T09:15:38.392Z,3.58
2023-05-09T09:18:09.993Z,3.50
2023-05-09T09:20:56.429Z,4.70
2023-05-09T09:23:25.242Z,3.67
2023-05-09T09:26:03.033Z,3.78
2023-05-09T09:28:29.349Z,3.70
2023-05-09T09:30:56.090Z,3.28
2023-05-09T09:33:24.225Z,3.40
2023-05-09T09:35:52.122Z,3.60
2023-05-09T09:38:19.441Z,3.50
2023-05-09T09:40:52.003Z,3.67
2023-05-09T09:43:18.658Z,3.95
2023-05-09T09:45:49.037Z,4.00
2023-05-09T09:48:15.453Z,3.20
2023-05-09T09:50:41.743Z,3.50
2023-05-09T09:53:08.052Z,3.70
2023-05-09T09:55:34.927Z,3.28
2023-05-09T09:58:01.288Z,3.30
2023-05-09T10:00:28.806Z,2.92
2023-05-09T10:02:58.976Z,3.28
2023-05-09T10:05:27.182Z,3.08
2023-05-09T10:08:04.435Z,3.10
2023-05-09T10:10:32.619Z,3.75
2023-05-09T10:13:09.822Z,3.40
2023-05-09T10:15:49.340Z,3.38
2023-05-09T10:18:25.315Z,3.80
2023-05-09T10:20:52.963Z,3.53
2023-05-09T10:23:19.819Z,3.65
2023-05-09T10:26:13.072Z,3.72
2023-05-09T10:28:41.844Z,3.97
2023-05-09T10:31:28.664Z,3.95
2023-05-09T10:33:55.588Z,3.72
2023-05-09T10:36:22.769Z,3.60
2023-05-09T10:38:53.119Z,4.47
2023-05-09T10:41:20.258Z,3.97
2023-05-09T10:43:46.634Z,3.60
2023-05-09T10:46:13.479Z,3.90
2023-05-09T10:48:41.298Z,3.63
2023-05-09T10:51:08.156Z,3.25
2023-05-09T10:53:45.497Z,3.13
2023-05-09T10:56:29.891Z,3.05
2023-05-09T10:58:56.306Z,3.42
2023-05-09T11:01:56.980Z,3.45
2023-05-09T11:04:23.369Z,3.33
2023-05-09T11:06:52.119Z,3.03
2023-05-09T11:09:28.805Z,3.17
2023-05-09T11:12:03.972Z,2.80
2023-05-09T11:14:41.312Z,3.28
2023-05-09T11:17:23.075Z,3.15
2023-05-09T11:19:49.527Z,2.60
2023-05-09T11:22:21.204Z,2.20
2023-05-09T11:24:49.418Z,2.15
2023-05-09T11:27:23.196Z,1.83
2023-05-09T11:29:55.274Z,1.92
2023-05-09T11:32:26.817Z,2.10
2023-05-09T11:35:06.496Z,2.00
2023-05-09T11:37:32.906Z,2.22
2023-05-09T11:40:01.494Z,2.00
2023-05-09T11:42:28.602Z,2.03
2023-05-09T11:44:56.710Z,1.92
2023-05-09T11:47:23.157Z,1.83
2023-05-09T11:49:50.005Z,2.13
2023-05-09T11:52:18.336Z,1.77
2023-05-09T11:54:44.818Z,1.80
2023-05-09T11:57:11.761Z,1.60
2023-05-09T11:59:38.371Z,1.92
2023-05-09T12:02:06.166Z,1.80
2023-05-09T12:04:33.587Z,1.83
2023-05-09T12:07:01.117Z,1.73
2023-05-09T12:09:31.558Z,1.65
2023-05-09T12:11:57.899Z,1.65
2023-05-09T12:14:32.258Z,2.17
2023-05-09T12:16:58.784Z,1.65
2023-05-09T12:19:26.673Z,1.80
2023-05-09T12:22:00.479Z,1.90
2023-05-09T12:24:27.958Z,1.70
2023-05-09T12:26:59.055Z,1.65
2023-05-09T12:29:26.820Z,2.20
2023-05-09T12:31:53.698Z,1.90
2023-05-09T12:34:20.511Z,1.80
2023-05-09T12:36:47.531Z,1.70
2023-05-09T12:39:13.861Z,1.92
2023-05-09T12:41:57.372Z,1.90
2023-05-09T12:44:27.169Z,1.77
2023-05-09T12:46:57.531Z,1.90
2023-05-09T12:49:24.679Z,2.20
2023-05-09T12:51:51.923Z,2.55
2023-05-09T12:54:27.590Z,2.40
2023-05-09T12:56:55.165Z,1.80
2023-05-09T12:59:28.639Z,1.90
2023-05-09T13:02:00.020Z,1.98
2023-05-09T13:04:27.695Z,1.77
2023-05-09T13:06:56.695Z,1.80
2023-05-09T13:09:24.454Z,1.83
2023-05-09T13:11:51.562Z,1.63
2023-05-09T13:14:19.408Z,1.77
2023-05-09T13:16:45.847Z,1.77
2023-05-09T13:19:12.240Z,1.88
2023-05-09T13:21:38.659Z,1.70
2023-05-09T13:24:05.356Z,1.70
2023-05-09T13:26:32.067Z,1.70
2023-05-09T13:28:58.493Z,1.90
2023-05-09T13:31:25.126Z,1.77
2023-05-09T13:33:52.304Z,2.03
2023-05-09T13:36:19.139Z,1.83
2023-05-09T13:38:45.558Z,2.30
2023-05-09T13:41:12.291Z,1.90
2023-05-09T13:43:39.369Z,1.80
2023-05-09T13:46:05.858Z,1.90
2023-05-09T13:48:32.199Z,1.85
2023-05-09T13:50:58.549Z,1.80
2023-05-09T13:53:24.830Z,2.00
2023-05-09T13:55:51.114Z,1.80
2023-05-09T13:58:17.431Z,1.80
2023-05-09T14:00:45.552Z,1.73
2023-05-09T14:03:11.920Z,2.00
2023-05-09T14:05:38.213Z,1.90
2023-05-09T14:08:04.719Z,1.70
2023-05-09T14:10:31.024Z,1.80
2023-05-09T14:12:57.362Z,1.77
2023-05-09T14:15:23.720Z,2.08
2023-05-09T14:17:50.138Z,1.67
2023-05-09T14:20:16.707Z,1.70
2023-05-09T14:22:43.235Z,2.10
2023-05-09T14:25:09.786Z,2.00
2023-05-09T14:27:36.096Z,2.00
2023-05-09T14:30:05.835Z,1.80
2023-05-09T14:32:32.157Z,1.80
2023-05-09T14:34:58.523Z,1.83
2023-05-09T14:37:24.828Z,1.80
2023-05-09T14:39:51.152Z,1.60
2023-05-09T14:42:17.657Z,2.00
2023-05-09T14:44:43.961Z,1.83
2023-05-09T14:47:10.355Z,2.17
2023-05-09T14:49:37.417Z,2.00
2023-05-09T14:52:03.779Z,2.35
2023-05-09T14:54:30.077Z,1.88
2023-05-09T14:56:56.365Z,2.00
2023-05-09T14:59:22.664Z,2.45
2023-05-09T15:01:48.977Z,2.20
2023-05-09T15:04:15.467Z,2.10
2023-05-09T15:06:41.799Z,2.47
2023-05-09T15:09:08.103Z,2.60
2023-05-09T15:11:46.884Z,2.08
2023-05-09T15:14:14.480Z,2.10
2023-05-09T15:16:40.913Z,1.80
2023-05-09T15:19:08.222Z,2.22
2023-05-09T15:21:34.504Z,2.25
2023-05-09T15:24:00.794Z,2.00
2023-05-09T15:26:27.101Z,2.53
2023-05-09T15:28:53.389Z,2.35
2023-05-09T15:31:19.783Z,2.00
2023-05-09T15:33:46.091Z,2.08
2023-05-09T15:36:12.483Z,1.98
2023-05-09T15:38:38.787Z,2.00
2023-05-09T15:41:05.114Z,2.00
2023-05-09T15:43:31.451Z,1.90
2023-05-09T15:45:57.816Z,2.10
2023-05-09T15:48:24.105Z,2.10
2023-05-09T15:50:52.991Z,2.60
2023-05-09T15:53:19.422Z,2.40
2023-05-09T15:55:45.713Z,2.63
2023-05-09T15:58:12.017Z,2.20
2023-05-09T16:00:38.429Z,2.20
2023-05-09T16:03:04.846Z,2.10
2023-05-09T16:05:31.273Z,3.05
2023-05-09T16:07:57.651Z,2.17
2023-05-09T16:10:24.179Z,1.67
2023-05-09T16:12:50.597Z,2.03
2023-05-09T16:15:17.027Z,2.10
2023-05-09T16:17:43.312Z,2.10
2023-05-09T16:20:10.270Z,2.05
2023-05-09T16:22:36.550Z,2.05
2023-05-09T16:25:02.845Z,2.20
2023-05-09T16:27:29.227Z,2.50
2023-05-09T16:29:55.528Z,2.50
2023-05-09T16:32:21.811Z,2.22
2023-05-09T16:34:48.163Z,2.30
2023-05-09T16:37:14.643Z,2.40
2023-05-09T16:39:40.931Z,2.30
2023-05-09T16:42:07.340Z,2.50
2023-05-09T16:44:33.680Z,2.38
2023-05-09T16:46:59.977Z,2.00
2023-05-09T16:49:26.450Z,2.47
2023-05-09T16:51:52.822Z,2.42
2023-05-09T16:54:19.162Z,2.47
2023-05-09T16:56:45.664Z,2.53
2023-05-09T16:59:12.083Z,2.53
2023-05-09T17:01:38.469Z,2.38
2023-05-09T17:04:04.985Z,2.50
2023-05-09T17:06:31.610Z,2.72
2023-05-09T17:08:57.898Z,2.55
2023-05-09T17:11:24.183Z,2.70
2023-05-09T17:13:50.533Z,2.55
2023-05-09T17:16:16.862Z,2.40
2023-05-09T17:18:43.252Z,2.50
2023-05-09T17:21:09.547Z,2.42
2023-05-09T17:23:35.829Z,2.20
2023-05-09T17:26:02.356Z,2.60
2023-05-09T17:28:28.670Z,2.50
2023-05-09T17:30:54.982Z,2.38
2023-05-09T17:33:21.631Z,2.30
2023-05-09T17:35:47.965Z,2.60
2023-05-09T17:38:14.277Z,2.55
2023-05-09T17:40:40.715Z,2.53
2023-05-09T17:43:07.051Z,2.65
2023-05-09T17:45:33.346Z,2.70
2023-05-09T17:47:59.739Z,2.67
2023-05-09T17:50:26.102Z,2.15
2023-05-09T17:52:52.418Z,2.45
2023-05-09T17:55:18.962Z,2.40
2023-05-09T17:57:45.278Z,2.47
2023-05-09T18:00:12.162Z,2.55
2023-05-09T18:02:39.235Z,2.42
2023-05-09T18:05:08.460Z,2.38
2023-05-09T18:07:35.285Z,2.33
2023-05-09T18:10:01.866Z,2.45
2023-05-09T18:12:28.228Z,2.40
2023-05-09T18:14:55.152Z,2.60
2023-05-09T18:17:21.934Z,2.40
2023-05-09T18:19:48.302Z,2.08
2023-05-09T18:22:14.697Z,2.38
2023-05-09T18:24:41.110Z,2.25
2023-05-09T18:27:07.514Z,2.03
2023-05-09T18:29:33.821Z,2.33
2023-05-09T18:32:00.122Z,2.15
2023-05-09T18:34:26.485Z,2.60
2023-05-09T18:36:52.813Z,2.30
2023-05-09T18:39:19.219Z,2.17
2023-05-09T18:41:45.686Z,2.45
2023-05-09T18:44:12.175Z,2.20
2023-05-09T18:46:38.509Z,2.22
2023-05-09T18:49:04.875Z,2.20
2023-05-09T18:51:31.378Z,1.95
2023-05-09T18:53:57.855Z,2.20
2023-05-09T18:56:24.160Z,1.85
2023-05-09T18:58:50.429Z,2.30
2023-05-09T19:01:17.361Z,2.33
2023-05-09T19:03:43.880Z,2.20
2023-05-09T19:06:10.647Z,2.20
2023-05-09T19:08:37.287Z,2.08
2023-05-09T19:11:03.595Z,2.08
2023-05-09T19:13:30.159Z,2.00
2023-05-09T19:15:56.507Z,2.03
2023-05-09T19:18:22.800Z,2.15
2023-05-09T19:20:49.117Z,2.30
2023-05-09T19:23:15.432Z,2.17
2023-05-09T19:25:41.749Z,2.00
2023-05-09T19:28:08.081Z,2.30
2023-05-09T19:30:34.451Z,2.10
2023-05-09T19:33:00.811Z,2.00
2023-05-09T19:35:27.297Z,2.17
2023-05-09T19:37:53.660Z,2.08
2023-05-09T19:40:20.042Z,2.10
2023-05-09T19:42:46.482Z,2.30
2023-05-09T19:45:12.803Z,2.30
2023-05-09T19:47:39.184Z,2.08
2023-05-09T19:50:06.265Z,2.20
2023-05-09T19:52:32.560Z,2.03
2023-05-09T19:54:58.891Z,2.30
2023-05-09T19:57:25.262Z,2.08
2023-05-09T19:59:51.622Z,2.30
2023-05-09T20:02:18.089Z,2.20
2023-05-09T20:04:44.959Z,2.08
2023-05-09T20:07:11.406Z,2.45
2023-05-09T20:10:13.199Z,2.20
2023-05-09T20:12:45.720Z,2.13
2023-05-09T20:15:12.085Z,2.15
2023-05-09T20:17:38.442Z,2.45
2023-05-09T20:20:10.420Z,2.45
2023-05-09T20:22:41.753Z,2.30
2023-05-09T20:25:08.209Z,2.15
2023-05-09T20:27:34.488Z,2.60
2023-05-09T20:30:03.118Z,2.13
2023-05-09T20:32:29.637Z,2.40
2023-05-09T20:34:55.967Z,2.90
2023-05-09T20:37:22.296Z,2.80
2023-05-09T20:39:48.645Z,3.05
2023-05-09T20:42:14.960Z,2.80
2023-05-09T20:44:42.329Z,2.55
2023-05-09T20:47:08.699Z,2.42
2023-05-09T20:49:35.007Z,2.55
2023-05-09T20:52:01.426Z,2.63
2023-05-09T20:54:27.809Z,2.80
2023-05-09T20:56:54.167Z,2.78
2023-05-09T20:59:20.446Z,2.67
2023-05-09T21:01:46.722Z,2.85
2023-05-09T21:04:13.393Z,3.08
2023-05-09T21:06:39.668Z,2.60
2023-05-09T21:09:06.151Z,2.70
2023-05-09T21:11:32.607Z,2.80
2023-05-09T21:13:58.918Z,2.85
2023-05-09T21:16:25.344Z,2.67
2023-05-09T21:18:51.739Z,2.75
2023-05-09T21:21:18.055Z,2.50
2023-05-09T21:23:44.342Z,2.70
2023-05-09T21:26:10.710Z,2.80
2023-05-09T21:28:37.029Z,2.78
2023-05-09T21:31:03.441Z,2.40
2023-05-09T21:33:29.826Z,2.55
2023-05-09T21:35:56.448Z,2.55
2023-05-09T21:38:22.772Z,2.70
2023-05-09T21:40:50.224Z,2.60
2023-05-09T21:43:16.834Z,2.53
2023-05-09T21:45:43.150Z,2.70
2023-05-09T21:48:09.571Z,2.78
2023-05-09T21:50:36.858Z,2.65
2023-05-09T21:53:03.320Z,2.60
2023-05-09T21:55:29.662Z,2.70
2023-05-09T21:57:55.981Z,2.75
2023-05-09T22:00:22.339Z,2.70
2023-05-09T22:02:48.755Z,2.40
2023-05-09T22:05:15.252Z,3.03
2023-05-09T22:07:41.589Z,2.80
2023-05-09T22:10:08.446Z,3.13
2023-05-09T22:12:34.812Z,3.50
2023-05-09T22:15:01.117Z,3.55
2023-05-09T22:17:27.487Z,3.40
2023-05-09T22:19:53.817Z,3.55
2023-05-09T22:22:20.197Z,3.75
2023-05-09T22:24:46.559Z,3.67
2023-05-09T22:27:12.834Z,3.28
2023-05-09T22:29:39.261Z,4.07
2023-05-09T22:32:06.193Z,3.80
2023-05-09T22:34:32.557Z,3.97
2023-05-09T22:36:58.931Z,4.32
2023-05-09T22:39:25.345Z,4.18
2023-05-09T22:41:51.653Z,4.20
2023-05-09T22:44:17.964Z,4.25
2023-05-09T22:46:44.343Z,3.40
2023-05-09T22:49:10.627Z,4.63
2023-05-09T22:51:36.927Z,4.60
2023-05-09T22:54:03.483Z,4.50
2023-05-09T22:56:29.827Z,4.22
2023-05-09T22:58:56.283Z,4.35
2023-05-09T23:01:22.659Z,3.75
2023-05-09T23:03:48.970Z,4.10
2023-05-09T23:06:15.364Z,3.78
2023-05-09T23:08:41.642Z,3.75
2023-05-09T23:11:07.942Z,4.00
2023-05-09T23:13:34.378Z,4.03
2023-05-09T23:16:00.751Z,4.45
2023-05-09T23:18:27.092Z,4.68
2023-05-09T23:20:53.479Z,4.53
2023-05-09T23:23:19.753Z,4.65
2023-05-09T23:25:46.071Z,4.32
2023-05-09T23:28:12.478Z,4.60
2023-05-09T23:30:38.823Z,4.70
2023-05-09T23:33:05.156Z,5.00
2023-05-09T23:35:31.473Z,4.75
2023-05-09T23:37:57.805Z,4.30
2023-05-09T23:40:24.086Z,5.03
2023-05-09T23:42:50.367Z,4.45
2023-05-09T23:45:16.750Z,5.30
2023-05-09T23:47:43.172Z,4.82
2023-05-09T23:50:09.679Z,4.25
2023-05-09T23:52:36.040Z,4.55
2023-05-09T23:55:02.403Z,4.65
2023-05-09T23:57:28.742Z,4.57
2023-05-09T23:59:55.043Z,4.50
